sensor_id;sensor_type;location;lat;lon;timestamp;pressure;altitude;pressure_sealevel;temperature;humidity
43701;BME280;58809;47.984;7.964;2023-05-16T00:02:22;96910.81;;;11.10;nan
43701;BME280;58809;47.984;7.964;2023-05-16T00:05:24;96912.47;;;11.11;nan
43701;BME280;58809;47.984;7.964;2023-05-16T00:08:26;96909.44;;;11.14;nan
43701;BME280;58809;47.984;7.964;2023-05-16T00:11:27;96910.81;;;11.10;nan
43701;BME280;58809;47.984;7.964;2023-05-16T00:14:29;96917.94;;;11.09;nan
43701;BME280;58809;47.984;7.964;2023-05-16T00:17:30;96906.13;;;11.05;nan
43701;BME280;58809;47.984;7.964;2023-05-16T00:20:32;96907.31;;;11.03;nan
43701;BME280;58809;47.984;7.964;2023-05-16T00:23:34;96915.91;;;11.05;nan
43701;BME280;58809;47.984;7.964;2023-05-16T00:26:36;96899.16;;;11.04;nan
43701;BME280;58809;47.984;7.964;2023-05-16T00:29:37;96906.13;;;11.05;nan
43701;BME280;58809;47.984;7.964;2023-05-16T00:32:39;96902.88;;;11.10;nan
43701;BME280;58809;47.984;7.964;2023-05-16T00:35:41;96900.88;;;11.12;nan
43701;BME280;58809;47.984;7.964;2023-05-16T00:38:42;96896.44;;;11.19;nan
43701;BME280;58809;47.984;7.964;2023-05-16T00:41:45;96899.72;;;11.21;nan
43701;BME280;58809;47.984;7.964;2023-05-16T00:44:47;96892.16;;;11.18;nan
43701;BME280;58809;47.984;7.964;2023-05-16T00:47:50;96900.47;;;11.15;nan
43701;BME280;58809;47.984;7.964;2023-05-16T00:50:52;96899.28;;;11.17;nan
43701;BME280;58809;47.984;7.964;2023-05-16T00:53:55;96903.00;;;11.23;nan
43701;BME280;58809;47.984;7.964;2023-05-16T00:56:57;96902.59;;;11.26;nan
43701;BME280;58809;47.984;7.964;2023-05-16T00:59:59;96892.41;;;11.23;nan
43701;BME280;58809;47.984;7.964;2023-05-16T01:03:00;96897.28;;;11.20;nan
43701;BME280;58809;47.984;7.964;2023-05-16T01:06:02;96895.25;;;11.22;nan
43701;BME280;58809;47.984;7.964;2023-05-16T01:09:04;96898.84;;;11.14;nan
43701;BME280;58809;47.984;7.964;2023-05-16T01:15:38;96898.41;;;11.10;nan
43701;BME280;58809;47.984;7.964;2023-05-16T01:18:57;96890.22;;;11.05;nan
43701;BME280;58809;47.984;7.964;2023-05-16T01:22:08;96891.84;;;11.06;nan
43701;BME280;58809;47.984;7.964;2023-05-16T01:25:45;96891.66;;;11.08;nan
43701;BME280;58809;47.984;7.964;2023-05-16T01:28:44;96891.03;;;11.06;nan
43701;BME280;58809;47.984;7.964;2023-05-16T01:31:46;96887.75;;;11.04;nan
43701;BME280;58809;47.984;7.964;2023-05-16T01:34:51;96879.25;;;11.08;nan
43701;BME280;58809;47.984;7.964;2023-05-16T01:44:18;96890.78;;;11.01;nan
43701;BME280;58809;47.984;7.964;2023-05-16T01:47:22;96888.78;;;11.03;nan
43701;BME280;58809;47.984;7.964;2023-05-16T01:50:29;96891.44;;;11.03;nan
43701;BME280;58809;47.984;7.964;2023-05-16T01:53:36;96887.50;;;10.98;nan
43701;BME280;58809;47.984;7.964;2023-05-16T01:56:41;96890.16;;;10.98;nan
43701;BME280;58809;47.984;7.964;2023-05-16T01:59:47;96890.56;;;10.95;nan
43701;BME280;58809;47.984;7.964;2023-05-16T02:02:49;96889.53;;;10.96;nan
43701;BME280;58809;47.984;7.964;2023-05-16T02:05:50;96888.53;;;10.97;nan
43701;BME280;58809;47.984;7.964;2023-05-16T02:08:52;96881.22;;;11.00;nan
43701;BME280;58809;47.984;7.964;2023-05-16T02:11:53;96891.81;;;11.00;nan
43701;BME280;58809;47.984;7.964;2023-05-16T02:14:55;96896.09;;;11.01;nan
43701;BME280;58809;47.984;7.964;2023-05-16T02:17:56;96895.47;;;10.98;nan
43701;BME280;58809;47.984;7.964;2023-05-16T02:20:58;96897.28;;;10.98;nan
43701;BME280;58809;47.984;7.964;2023-05-16T02:24:00;96899.69;;;10.93;nan
43701;BME280;58809;47.984;7.964;2023-05-16T02:27:01;96892.34;;;10.88;nan
43701;BME280;58809;47.984;7.964;2023-05-16T02:30:03;96888.47;;;10.91;nan
43701;BME280;58809;47.984;7.964;2023-05-16T02:33:05;96897.47;;;10.96;nan
43701;BME280;58809;47.984;7.964;2023-05-16T02:36:07;96895.09;;;11.02;nan
43701;BME280;58809;47.984;7.964;2023-05-16T02:39:09;96890.22;;;11.05;nan
43701;BME280;58809;47.984;7.964;2023-05-16T02:42:12;96890.59;;;11.02;nan
43701;BME280;58809;47.984;7.964;2023-05-16T02:45:13;96881.59;;;10.96;nan
43701;BME280;58809;47.984;7.964;2023-05-16T02:48:15;96869.50;;;10.87;nan
43701;BME280;58809;47.984;7.964;2023-05-16T02:51:17;96883.56;;;10.88;nan
43701;BME280;58809;47.984;7.964;2023-05-16T02:54:19;96883.94;;;10.85;nan
43701;BME280;58809;47.984;7.964;2023-05-16T02:57:20;96888.41;;;10.84;nan
43701;BME280;58809;47.984;7.964;2023-05-16T03:00:22;96877.81;;;10.84;nan
43701;BME280;58809;47.984;7.964;2023-05-16T03:03:23;96881.31;;;10.85;nan
43701;BME280;58809;47.984;7.964;2023-05-16T03:06:25;96881.13;;;10.86;nan
43701;BME280;58809;47.984;7.964;2023-05-16T03:09:27;96873.03;;;10.94;nan
43701;BME280;58809;47.984;7.964;2023-05-16T03:12:28;96880.34;;;10.92;nan
43701;BME280;58809;47.984;7.964;2023-05-16T03:15:30;96876.81;;;10.85;nan
43701;BME280;58809;47.984;7.964;2023-05-16T03:18:32;96877.00;;;10.84;nan
43701;BME280;58809;47.984;7.964;2023-05-16T03:21:34;96885.97;;;10.83;nan
43701;BME280;58809;47.984;7.964;2023-05-16T03:24:35;96882.25;;;10.77;nan
43701;BME280;58809;47.984;7.964;2023-05-16T03:27:37;96883.50;;;10.81;nan
43701;BME280;58809;47.984;7.964;2023-05-16T03:30:38;96886.16;;;10.81;nan
43701;BME280;58809;47.984;7.964;2023-05-16T03:33:40;96888.63;;;10.83;nan
43701;BME280;58809;47.984;7.964;2023-05-16T03:36:41;96888.22;;;10.86;nan
43701;BME280;58809;47.984;7.964;2023-05-16T03:39:43;96878.03;;;10.83;nan
43701;BME280;58809;47.984;7.964;2023-05-16T03:42:44;96884.94;;;10.84;nan
43701;BME280;58809;47.984;7.964;2023-05-16T03:45:46;96885.19;;;10.89;nan
43701;BME280;58809;47.984;7.964;2023-05-16T03:48:48;96889.72;;;10.95;nan
43701;BME280;58809;47.984;7.964;2023-05-16T03:51:49;96886.09;;;10.96;nan
43701;BME280;58809;47.984;7.964;2023-05-16T03:54:50;96889.09;;;10.93;nan
43701;BME280;58809;47.984;7.964;2023-05-16T03:57:52;96888.09;;;10.94;nan
43701;BME280;58809;47.984;7.964;2023-05-16T04:00:54;96890.16;;;10.98;nan
43701;BME280;58809;47.984;7.964;2023-05-16T04:03:55;96889.34;;;10.98;nan
43701;BME280;58809;47.984;7.964;2023-05-16T04:06:56;96897.84;;;10.93;nan
43701;BME280;58809;47.984;7.964;2023-05-16T04:09:58;96892.56;;;10.93;nan
43701;BME280;58809;47.984;7.964;2023-05-16T04:12:59;96898.09;;;10.98;nan
43701;BME280;58809;47.984;7.964;2023-05-16T04:16:01;96906.50;;;11.02;nan
43701;BME280;58809;47.984;7.964;2023-05-16T04:19:03;96900.31;;;10.95;nan
43701;BME280;58809;47.984;7.964;2023-05-16T04:22:04;96900.75;;;10.98;nan
43701;BME280;58809;47.984;7.964;2023-05-16T04:25:06;96899.56;;;11.01;nan
43701;BME280;58809;47.984;7.964;2023-05-16T04:28:08;96897.28;;;10.98;nan
43701;BME280;58809;47.984;7.964;2023-05-16T04:31:09;96904.88;;;11.01;nan
43701;BME280;58809;47.984;7.964;2023-05-16T04:34:11;96899.16;;;11.04;nan
43701;BME280;58809;47.984;7.964;2023-05-16T04:37:13;96906.94;;;11.06;nan
43701;BME280;58809;47.984;7.964;2023-05-16T04:40:14;96901.25;;;11.09;nan
43701;BME280;58809;47.984;7.964;2023-05-16T04:43:18;96913.88;;;11.07;nan
43701;BME280;58809;47.984;7.964;2023-05-16T04:46:20;96903.72;;;11.10;nan
43701;BME280;58809;47.984;7.964;2023-05-16T04:49:21;96915.56;;;11.14;nan
43701;BME280;58809;47.984;7.964;2023-05-16T04:52:23;96909.00;;;11.10;nan
43701;BME280;58809;47.984;7.964;2023-05-16T04:55:24;96903.28;;;11.07;nan
43701;BME280;58809;47.984;7.964;2023-05-16T04:58:26;96908.50;;;11.00;nan
43701;BME280;58809;47.984;7.964;2023-05-16T05:01:28;96911.94;;;10.94;nan
43701;BME280;58809;47.984;7.964;2023-05-16T05:04:29;96919.63;;;10.89;nan
43701;BME280;58809;47.984;7.964;2023-05-16T05:07:31;96904.94;;;10.86;nan
43701;BME280;58809;47.984;7.964;2023-05-16T05:10:33;96917.78;;;10.89;nan
43701;BME280;58809;47.984;7.964;2023-05-16T05:13:34;96917.75;;;10.83;nan
43701;BME280;58809;47.984;7.964;2023-05-16T05:16:36;96924.47;;;10.85;nan
43701;BME280;58809;47.984;7.964;2023-05-16T05:19:37;96928.09;;;10.84;nan
43701;BME280;58809;47.984;7.964;2023-05-16T05:22:39;96926.81;;;10.73;nan
43701;BME280;58809;47.984;7.964;2023-05-16T05:25:41;96926.59;;;10.75;nan
43701;BME280;58809;47.984;7.964;2023-05-16T05:28:42;96925.97;;;10.73;nan
43701;BME280;58809;47.984;7.964;2023-05-16T05:31:54;96926.59;;;10.75;nan
43701;BME280;58809;47.984;7.964;2023-05-16T05:34:55;96928.75;;;10.65;nan
43701;BME280;58809;47.984;7.964;2023-05-16T05:37:57;96934.31;;;10.70;nan
43701;BME280;58809;47.984;7.964;2023-05-16T05:40:59;96923.66;;;10.63;nan
43701;BME280;58809;47.984;7.964;2023-05-16T05:44:00;96930.16;;;10.61;nan
43701;BME280;58809;47.984;7.964;2023-05-16T05:47:02;96937.06;;;10.62;nan
43701;BME280;58809;47.984;7.964;2023-05-16T05:50:05;96934.59;;;10.60;nan
43701;BME280;58809;47.984;7.964;2023-05-16T05:53:07;96930.16;;;10.61;nan
43701;BME280;58809;47.984;7.964;2023-05-16T05:56:08;96930.78;;;10.63;nan
43701;BME280;58809;47.984;7.964;2023-05-16T05:59:10;96932.41;;;10.64;nan
43701;BME280;58809;47.984;7.964;2023-05-16T06:02:12;96937.19;;;10.75;nan
43701;BME280;58809;47.984;7.964;2023-05-16T06:05:14;96937.94;;;10.69;nan
43701;BME280;58809;47.984;7.964;2023-05-16T06:08:15;96940.41;;;10.70;nan
43701;BME280;58809;47.984;7.964;2023-05-16T06:11:17;96940.50;;;10.77;nan
43701;BME280;58809;47.984;7.964;2023-05-16T06:14:19;96945.00;;;10.83;nan
43701;BME280;58809;47.984;7.964;2023-05-16T06:17:20;96941.47;;;10.76;nan
43701;BME280;58809;47.984;7.964;2023-05-16T06:20:24;96946.16;;;10.74;nan
43701;BME280;58809;47.984;7.964;2023-05-16T06:23:26;96963.19;;;10.71;nan
43701;BME280;58809;47.984;7.964;2023-05-16T06:26:27;96957.78;;;10.58;nan
43701;BME280;58809;47.984;7.964;2023-05-16T06:29:29;96958.16;;;10.55;nan
43701;BME280;58809;47.984;7.964;2023-05-16T06:32:30;96965.91;;;10.56;nan
43701;BME280;58809;47.984;7.964;2023-05-16T06:35:32;96971.47;;;10.62;nan
43701;BME280;58809;47.984;7.964;2023-05-16T06:38:34;96976.25;;;10.51;nan
43701;BME280;58809;47.984;7.964;2023-05-16T06:41:35;96978.00;;;10.44;nan
43701;BME280;58809;47.984;7.964;2023-05-16T06:44:37;96977.34;;;10.42;nan
43701;BME280;58809;47.984;7.964;2023-05-16T06:47:38;96973.06;;;10.41;nan
43701;BME280;58809;47.984;7.964;2023-05-16T06:50:40;96975.06;;;10.39;nan
43701;BME280;58809;47.984;7.964;2023-05-16T06:53:42;96976.69;;;10.40;nan
43701;BME280;58809;47.984;7.964;2023-05-16T06:56:44;96983.06;;;10.46;nan
43701;BME280;58809;47.984;7.964;2023-05-16T06:59:45;96983.78;;;10.54;nan
43701;BME280;58809;47.984;7.964;2023-05-16T07:02:47;96989.47;;;10.51;nan
43701;BME280;58809;47.984;7.964;2023-05-16T07:05:48;96985.25;;;10.42;nan
43701;BME280;58809;47.984;7.964;2023-05-16T07:08:53;96987.09;;;10.27;nan
43701;BME280;58809;47.984;7.964;2023-05-16T07:11:54;96984.81;;;10.24;nan
43701;BME280;58809;47.984;7.964;2023-05-16T07:14:56;96985.91;;;10.14;nan
43701;BME280;58809;47.984;7.964;2023-05-16T07:17:57;96992.56;;;10.10;nan
43701;BME280;58809;47.984;7.964;2023-05-16T07:20:59;96987.38;;;10.17;nan
43701;BME280;58809;47.984;7.964;2023-05-16T07:24:00;96987.72;;;10.29;nan
43701;BME280;58809;47.984;7.964;2023-05-16T07:27:02;96985.66;;;10.09;nan
43701;BME280;58809;47.984;7.964;2023-05-16T07:30:04;96995.94;;;10.19;nan
43701;BME280;58809;47.984;7.964;2023-05-16T07:33:06;96997.41;;;10.21;nan
43701;BME280;58809;47.984;7.964;2023-05-16T07:36:07;96993.13;;;10.20;nan
43701;BME280;58809;47.984;7.964;2023-05-16T07:39:15;96997.97;;;10.17;nan
43701;BME280;58809;47.984;7.964;2023-05-16T07:42:16;97001.94;;;10.13;nan
43701;BME280;58809;47.984;7.964;2023-05-16T07:45:18;97002.78;;;10.13;nan
43701;BME280;58809;47.984;7.964;2023-05-16T07:48:19;97006.53;;;10.19;nan
43701;BME280;58809;47.984;7.964;2023-05-16T07:51:22;97007.75;;;10.31;nan
43701;BME280;58809;47.984;7.964;2023-05-16T07:54:23;97001.97;;;10.43;nan
43701;BME280;58809;47.984;7.964;2023-05-16T07:57:25;97006.97;;;10.52;nan
43701;BME280;58809;47.984;7.964;2023-05-16T08:00:28;97015.34;;;10.56;nan
43701;BME280;58809;47.984;7.964;2023-05-16T08:03:29;97009.44;;;10.54;nan
43701;BME280;58809;47.984;7.964;2023-05-16T08:06:31;97022.03;;;10.52;nan
43701;BME280;58809;47.984;7.964;2023-05-16T08:09:34;97016.34;;;10.55;nan
43701;BME280;58809;47.984;7.964;2023-05-16T08:12:36;97015.47;;;10.84;nan
43701;BME280;58809;47.984;7.964;2023-05-16T08:15:37;97019.34;;;11.03;nan
43701;BME280;58809;47.984;7.964;2023-05-16T08:18:39;97030.47;;;10.98;nan
43701;BME280;58809;47.984;7.964;2023-05-16T08:21:41;97029.81;;;10.90;nan
43701;BME280;58809;47.984;7.964;2023-05-16T08:24:42;97031.72;;;10.81;nan
43701;BME280;58809;47.984;7.964;2023-05-16T08:27:45;97038.16;;;10.72;nan
43701;BME280;58809;47.984;7.964;2023-05-16T08:30:47;97031.31;;;10.63;nan
43701;BME280;58809;47.984;7.964;2023-05-16T08:33:48;97035.97;;;10.46;nan
43701;BME280;58809;47.984;7.964;2023-05-16T08:36:50;97041.53;;;10.51;nan
43701;BME280;58809;47.984;7.964;2023-05-16T08:39:52;97024.09;;;10.56;nan
43701;BME280;58809;47.984;7.964;2023-05-16T08:42:53;97035.78;;;10.62;nan
43701;BME280;58809;47.984;7.964;2023-05-16T08:45:55;97040.41;;;10.75;nan
43701;BME280;58809;47.984;7.964;2023-05-16T08:49:00;97035.91;;;10.90;nan
43701;BME280;58809;47.984;7.964;2023-05-16T08:52:07;97030.63;;;10.90;nan
43701;BME280;58809;47.984;7.964;2023-05-16T08:55:10;97031.50;;;10.97;nan
43701;BME280;58809;47.984;7.964;2023-05-16T08:58:25;97041.47;;;10.81;nan
43701;BME280;58809;47.984;7.964;2023-05-16T09:01:29;97031.00;;;10.72;nan
43701;BME280;58809;47.984;7.964;2023-05-16T09:04:32;97035.03;;;10.68;nan
43701;BME280;58809;47.984;7.964;2023-05-16T09:07:34;97036.97;;;10.59;nan
43701;BME280;58809;47.984;7.964;2023-05-16T09:10:36;97037.50;;;10.55;nan
43701;BME280;58809;47.984;7.964;2023-05-16T09:13:38;97037.50;;;10.70;nan
43701;BME280;58809;47.984;7.964;2023-05-16T09:16:39;97036.50;;;10.71;nan
43701;BME280;58809;47.984;7.964;2023-05-16T09:19:42;97037.31;;;10.71;nan
43701;BME280;58809;47.984;7.964;2023-05-16T09:22:55;97035.59;;;10.64;nan
43701;BME280;58809;47.984;7.964;2023-05-16T09:25:57;97037.25;;;10.65;nan
43701;BME280;58809;47.984;7.964;2023-05-16T09:28:58;97034.78;;;10.63;nan
43701;BME280;58809;47.984;7.964;2023-05-16T09:32:11;97039.31;;;10.69;nan
43701;BME280;58809;47.984;7.964;2023-05-16T09:35:17;97041.78;;;10.71;nan
43701;BME280;58809;47.984;7.964;2023-05-16T09:38:28;97035.81;;;10.84;nan
43701;BME280;58809;47.984;7.964;2023-05-16T09:41:33;97040.56;;;11.10;nan
43701;BME280;58809;47.984;7.964;2023-05-16T09:44:36;97037.91;;;11.25;nan
43701;BME280;58809;47.984;7.964;2023-05-16T09:47:38;97043.69;;;11.35;nan
43701;BME280;58809;47.984;7.964;2023-05-16T09:50:50;97049.78;;;11.57;nan
43701;BME280;58809;47.984;7.964;2023-05-16T09:53:53;97046.31;;;11.56;nan
43701;BME280;58809;47.984;7.964;2023-05-16T09:56:54;97045.53;;;11.63;nan
43701;BME280;58809;47.984;7.964;2023-05-16T09:59:58;97054.38;;;11.70;nan
43701;BME280;58809;47.984;7.964;2023-05-16T10:03:01;97044.38;;;11.72;nan
43701;BME280;58809;47.984;7.964;2023-05-16T10:06:06;97047.13;;;11.57;nan
43701;BME280;58809;47.984;7.964;2023-05-16T10:09:11;97042.69;;;11.64;nan
43701;BME280;58809;47.984;7.964;2023-05-16T10:12:14;97033.41;;;11.75;nan
43701;BME280;58809;47.984;7.964;2023-05-16T10:15:16;97044.56;;;11.92;nan
43701;BME280;58809;47.984;7.964;2023-05-16T10:18:20;97038.53;;;12.05;nan
43701;BME280;58809;47.984;7.964;2023-05-16T10:21:23;97038.03;;;12.23;nan
43701;BME280;58809;47.984;7.964;2023-05-16T10:24:30;97040.25;;;12.19;nan
43701;BME280;58809;47.984;7.964;2023-05-16T10:27:33;97045.63;;;12.26;nan
43701;BME280;58809;47.984;7.964;2023-05-16T10:30:36;97050.50;;;12.29;nan
43701;BME280;58809;47.984;7.964;2023-05-16T10:33:40;97046.78;;;12.17;nan
43701;BME280;58809;47.984;7.964;2023-05-16T10:36:43;97042.66;;;12.07;nan
43701;BME280;58809;47.984;7.964;2023-05-16T10:39:45;97043.81;;;11.98;nan
43701;BME280;58809;47.984;7.964;2023-05-16T10:42:55;97047.34;;;12.12;nan
43701;BME280;58809;47.984;7.964;2023-05-16T10:46:06;97063.13;;;12.20;nan
43701;BME280;58809;47.984;7.964;2023-05-16T10:49:24;97052.34;;;12.22;nan
43701;BME280;58809;47.984;7.964;2023-05-16T10:52:33;97051.59;;;12.06;nan
43701;BME280;58809;47.984;7.964;2023-05-16T10:55:38;97045.31;;;11.86;nan
43701;BME280;58809;47.984;7.964;2023-05-16T10:58:40;97050.91;;;11.69;nan
43701;BME280;58809;47.984;7.964;2023-05-16T11:01:51;97051.72;;;11.48;nan
43701;BME280;58809;47.984;7.964;2023-05-16T11:04:57;97059.97;;;11.32;nan
43701;BME280;58809;47.984;7.964;2023-05-16T11:08:06;97054.03;;;11.08;nan
43701;BME280;58809;47.984;7.964;2023-05-16T11:14:48;97052.16;;;10.87;nan
43701;BME280;58809;47.984;7.964;2023-05-16T11:18:08;97057.53;;;10.94;nan
43701;BME280;58809;47.984;7.964;2023-05-16T11:21:10;97060.69;;;11.04;nan
43701;BME280;58809;47.984;7.964;2023-05-16T11:24:28;97067.91;;;11.10;nan
43701;BME280;58809;47.984;7.964;2023-05-16T11:27:31;97063.25;;;11.34;nan
43701;BME280;58809;47.984;7.964;2023-05-16T11:30:33;97062.28;;;11.63;nan
43701;BME280;58809;47.984;7.964;2023-05-16T11:33:34;97064.88;;;11.85;nan
43701;BME280;58809;47.984;7.964;2023-05-16T11:36:37;97070.06;;;12.21;nan
43701;BME280;58809;47.984;7.964;2023-05-16T11:39:40;97068.38;;;12.13;nan
43701;BME280;58809;47.984;7.964;2023-05-16T11:42:45;97073.75;;;12.20;nan
43701;BME280;58809;47.984;7.964;2023-05-16T11:45:53;97078.31;;;12.33;nan
43701;BME280;58809;47.984;7.964;2023-05-16T11:48:56;97073.97;;;12.60;nan
43701;BME280;58809;47.984;7.964;2023-05-16T11:51:58;97074.19;;;12.65;nan
43701;BME280;58809;47.984;7.964;2023-05-16T11:54:59;97080.91;;;12.61;nan
43701;BME280;58809;47.984;7.964;2023-05-16T11:58:01;97077.31;;;12.76;nan
43701;BME280;58809;47.984;7.964;2023-05-16T12:01:03;97077.25;;;12.69;nan
43701;BME280;58809;47.984;7.964;2023-05-16T12:07:11;97085.97;;;12.15;nan
43701;BME280;58809;47.984;7.964;2023-05-16T12:10:14;97091.50;;;11.91;nan
43701;BME280;58809;47.984;7.964;2023-05-16T12:13:19;97089.34;;;11.80;nan
43701;BME280;58809;47.984;7.964;2023-05-16T12:16:22;97091.81;;;11.60;nan
43701;BME280;58809;47.984;7.964;2023-05-16T12:19:24;97094.13;;;11.70;nan
43701;BME280;58809;47.984;7.964;2023-05-16T12:22:26;97104.09;;;11.89;nan
43701;BME280;58809;47.984;7.964;2023-05-16T12:25:32;97104.28;;;11.88;nan
43701;BME280;58809;47.984;7.964;2023-05-16T12:28:42;97103.28;;;11.67;nan
43701;BME280;58809;47.984;7.964;2023-05-16T12:31:44;97108.84;;;11.72;nan
43701;BME280;58809;47.984;7.964;2023-05-16T12:34:50;97102.63;;;11.87;nan
43701;BME280;58809;47.984;7.964;2023-05-16T12:37:52;97105.81;;;11.97;nan
43701;BME280;58809;47.984;7.964;2023-05-16T12:40:57;97110.63;;;12.15;nan
43701;BME280;58809;47.984;7.964;2023-05-16T12:44:06;97121.09;;;11.95;nan
43701;BME280;58809;47.984;7.964;2023-05-16T12:47:11;97119.19;;;11.89;nan
43701;BME280;58809;47.984;7.964;2023-05-16T12:50:14;97118.69;;;12.00;nan
43701;BME280;58809;47.984;7.964;2023-05-16T12:53:18;97112.25;;;12.16;nan
43701;BME280;58809;47.984;7.964;2023-05-16T12:56:19;97112.16;;;12.03;nan
43701;BME280;58809;47.984;7.964;2023-05-16T12:59:21;97117.09;;;11.84;nan
43701;BME280;58809;47.984;7.964;2023-05-16T13:02:23;97111.78;;;11.84;nan
43701;BME280;58809;47.984;7.964;2023-05-16T13:05:25;97115.34;;;11.70;nan
43701;BME280;58809;47.984;7.964;2023-05-16T13:08:27;97122.78;;;11.38;nan
43701;BME280;58809;47.984;7.964;2023-05-16T13:11:29;97121.25;;;11.29;nan
43701;BME280;58809;47.984;7.964;2023-05-16T13:14:30;97127.91;;;11.40;nan
43701;BME280;58809;47.984;7.964;2023-05-16T13:17:33;97126.13;;;11.47;nan
43701;BME280;58809;47.984;7.964;2023-05-16T13:20:35;97128.84;;;11.32;nan
43701;BME280;58809;47.984;7.964;2023-05-16T13:23:36;97132.09;;;11.12;nan
43701;BME280;58809;47.984;7.964;2023-05-16T13:26:38;97132.19;;;10.89;nan
43701;BME280;58809;47.984;7.964;2023-05-16T13:29:40;97140.72;;;10.70;nan
43701;BME280;58809;47.984;7.964;2023-05-16T13:32:41;97137.97;;;10.63;nan
43701;BME280;58809;47.984;7.964;2023-05-16T13:35:43;97143.63;;;10.60;nan
43701;BME280;58809;47.984;7.964;2023-05-16T13:38:44;97148.38;;;10.65;nan
43701;BME280;58809;47.984;7.964;2023-05-16T13:41:46;97155.31;;;10.66;nan
43701;BME280;58809;47.984;7.964;2023-05-16T13:44:49;97157.25;;;10.57;nan
43701;BME280;58809;47.984;7.964;2023-05-16T13:47:51;97159.25;;;10.70;nan
43701;BME280;58809;47.984;7.964;2023-05-16T13:50:52;97167.00;;;10.86;nan
43701;BME280;58809;47.984;7.964;2023-05-16T13:53:54;97166.28;;;10.77;nan
43701;BME280;58809;47.984;7.964;2023-05-16T13:56:56;97172.66;;;10.68;nan
43701;BME280;58809;47.984;7.964;2023-05-16T13:59:58;97184.88;;;10.69;nan
43701;BME280;58809;47.984;7.964;2023-05-16T14:03:20;97170.53;;;10.64;nan
43701;BME280;58809;47.984;7.964;2023-05-16T14:06:21;97172.72;;;10.75;nan
43701;BME280;58809;47.984;7.964;2023-05-16T14:09:23;97175.75;;;10.72;nan
43701;BME280;58809;47.984;7.964;2023-05-16T14:12:24;97186.25;;;10.80;nan
43701;BME280;58809;47.984;7.964;2023-05-16T14:15:26;97185.25;;;10.81;nan
43701;BME280;58809;47.984;7.964;2023-05-16T14:18:28;97179.41;;;10.71;nan
43701;BME280;58809;47.984;7.964;2023-05-16T14:21:30;97181.97;;;10.79;nan
43701;BME280;58809;47.984;7.964;2023-05-16T14:24:31;97182.78;;;10.79;nan
43701;BME280;58809;47.984;7.964;2023-05-16T14:27:34;97188.19;;;10.86;nan
43701;BME280;58809;47.984;7.964;2023-05-16T14:30:35;97194.75;;;10.90;nan
43701;BME280;58809;47.984;7.964;2023-05-16T14:33:37;97188.72;;;10.82;nan
43701;BME280;58809;47.984;7.964;2023-05-16T14:36:41;97184.78;;;10.77;nan
43701;BME280;58809;47.984;7.964;2023-05-16T14:39:43;97191.91;;;10.92;nan
43701;BME280;58809;47.984;7.964;2023-05-16T14:42:46;97187.97;;;10.88;nan
43701;BME280;58809;47.984;7.964;2023-05-16T14:45:48;97198.84;;;10.93;nan
43701;BME280;58809;47.984;7.964;2023-05-16T14:48:49;97202.50;;;10.77;nan
43701;BME280;58809;47.984;7.964;2023-05-16T14:51:51;97209.16;;;10.73;nan
43701;BME280;58809;47.984;7.964;2023-05-16T14:54:55;97207.53;;;10.72;nan
43701;BME280;58809;47.984;7.964;2023-05-16T14:57:57;97206.59;;;10.65;nan
43701;BME280;58809;47.984;7.964;2023-05-16T15:01:00;97217.19;;;10.79;nan
43701;BME280;58809;47.984;7.964;2023-05-16T15:04:02;97223.94;;;10.82;nan
43701;BME280;58809;47.984;7.964;2023-05-16T15:07:03;97218.38;;;10.92;nan
43701;BME280;58809;47.984;7.964;2023-05-16T15:10:05;97226.50;;;10.90;nan
43701;BME280;58809;47.984;7.964;2023-05-16T15:13:07;97237.34;;;10.66;nan
43701;BME280;58809;47.984;7.964;2023-05-16T15:16:09;97228.22;;;10.53;nan
43701;BME280;58809;47.984;7.964;2023-05-16T15:19:11;97231.38;;;10.49;nan
43701;BME280;58809;47.984;7.964;2023-05-16T15:22:12;97230.91;;;10.45;nan
43701;BME280;58809;47.984;7.964;2023-05-16T15:25:14;97229.69;;;10.33;nan
43701;BME280;58809;47.984;7.964;2023-05-16T15:28:15;97229.34;;;10.36;nan
43701;BME280;58809;47.984;7.964;2023-05-16T15:31:17;97222.28;;;10.28;nan
43701;BME280;58809;47.984;7.964;2023-05-16T15:34:18;97228.38;;;10.37;nan
43701;BME280;58809;47.984;7.964;2023-05-16T15:37:20;97232.13;;;10.43;nan
43701;BME280;58809;47.984;7.964;2023-05-16T15:40:22;97228.72;;;10.26;nan
43701;BME280;58809;47.984;7.964;2023-05-16T15:43:27;97239.78;;;10.29;nan
43701;BME280;58809;47.984;7.964;2023-05-16T15:46:29;97229.69;;;10.33;nan
43701;BME280;58809;47.984;7.964;2023-05-16T15:49:33;97243.59;;;10.35;nan
43701;BME280;58809;47.984;7.964;2023-05-16T15:52:34;97241.16;;;10.25;nan
43701;BME280;58809;47.984;7.964;2023-05-16T15:55:36;97244.25;;;10.29;nan
43701;BME280;58809;47.984;7.964;2023-05-16T15:58:37;97246.97;;;10.20;nan
43701;BME280;58809;47.984;7.964;2023-05-16T16:01:39;97246.03;;;10.13;nan
43701;BME280;58809;47.984;7.964;2023-05-16T16:04:41;97249.97;;;10.17;nan
43701;BME280;58809;47.984;7.964;2023-05-16T16:07:42;97253.34;;;10.11;nan
43701;BME280;58809;47.984;7.964;2023-05-16T16:10:44;97254.75;;;10.22;nan
43701;BME280;58809;47.984;7.964;2023-05-16T16:13:46;97258.72;;;10.18;nan
43701;BME280;58809;47.984;7.964;2023-05-16T16:16:47;97247.44;;;10.01;nan
43701;BME280;58809;47.984;7.964;2023-05-16T16:19:50;97251.75;;;10.02;nan
43701;BME280;58809;47.984;7.964;2023-05-16T16:22:52;97250.38;;;10.06;nan
43701;BME280;58809;47.984;7.964;2023-05-16T16:25:54;97254.16;;;10.12;nan
43701;BME280;58809;47.984;7.964;2023-05-16T16:28:55;97251.34;;;10.13;nan
43701;BME280;58809;47.984;7.964;2023-05-16T16:31:57;97252.16;;;10.14;nan
43701;BME280;58809;47.984;7.964;2023-05-16T16:34:59;97259.59;;;10.10;nan
43701;BME280;58809;47.984;7.964;2023-05-16T16:38:02;97255.69;;;10.06;nan
43701;BME280;58809;47.984;7.964;2023-05-16T16:41:07;97265.13;;;10.00;nan
43701;BME280;58809;47.984;7.964;2023-05-16T16:44:09;97261.31;;;10.03;nan
43701;BME280;58809;47.984;7.964;2023-05-16T16:47:10;97266.66;;;10.18;nan
43701;BME280;58809;47.984;7.964;2023-05-16T16:50:12;97273.69;;;10.26;nan
43701;BME280;58809;47.984;7.964;2023-05-16T16:53:13;97278.97;;;10.34;nan